Time;durP1;ratioP1;P1;durP2;ratioP2;P2;SDS_P1;SDS_P2;PMS_P1;PMS_P2;Temp;Humidity;BMP_temperature;BMP_pressure;BME280_temperature;BME280_humidity;BME280_pressure;Samples;Min_cycle;Max_cycle;Signal;HPM_P1;HPM_P2
2022/01/13 00:02:16;;;;;;;222.35;18.95;;;;;;;;;;5129880;27;20065;-59
2022/01/13 00:04:43;;;;;;;197.30;18.13;;;;;;;;;;5129827;27;20038;-61
2022/01/13 00:07:10;;;;;;;288.98;19.75;;;;;;;;;;5130618;27;20408;-63
2022/01/13 00:09:36;;;;;;;198.45;17.75;;;;;;;;;;5121479;27;20053;-61
2022/01/13 00:12:03;;;;;;;269.77;17.92;;;;;;;;;;5129076;27;20047;-61
2022/01/13 00:24:53;;;;;;;106.15;14.15;;;;;;;;;;5129029;27;20531;-60
2022/01/13 00:27:22;;;;;;;126.53;15.32;;;;;;;;;;5118115;27;20808;-61
2022/01/13 00:29:48;;;;;;;207.50;16.85;;;;;;;;;;5123724;27;20068;-61
2022/01/13 00:32:15;;;;;;;254.63;18.60;;;;;;;;;;5116841;27;20036;-60
2022/01/13 00:34:42;;;;;;;154.60;15.88;;;;;;;;;;5130595;27;20562;-61
2022/01/13 00:37:09;;;;;;;158.80;16.33;;;;;;;;;;5129849;27;20080;-61
2022/01/13 00:39:36;;;;;;;144.18;15.35;;;;;;;;;;5126399;27;20146;-61
2022/01/13 00:42:02;;;;;;;123.82;16.42;;;;;;;;;;5127703;27;20047;-59
2022/01/13 00:44:34;;;;;;;212.50;17.75;;;;;;;;;;5127548;27;20046;-61
2022/01/13 00:47:01;;;;;;;254.23;19.08;;;;;;;;;;5130445;27;21295;-61
2022/01/13 00:49:27;;;;;;;335.20;20.42;;;;;;;;;;5129332;27;20035;-61
2022/01/13 00:51:54;;;;;;;179.88;18.45;;;;;;;;;;5127642;27;20363;-63
2022/01/13 00:54:20;;;;;;;181.88;17.77;;;;;;;;;;5123671;27;20042;-61
2022/01/13 00:56:46;;;;;;;130.35;15.52;;;;;;;;;;5126676;27;20566;-61
2022/01/13 00:59:14;;;;;;;218.80;16.83;;;;;;;;;;5127229;27;20039;-61
2022/01/13 01:01:41;;;;;;;332.42;18.63;;;;;;;;;;5125319;28;20031;-62
2022/01/13 01:04:08;;;;;;;188.18;16.35;;;;;;;;;;5127523;27;20039;-60
2022/01/13 01:06:34;;;;;;;214.23;18.27;;;;;;;;;;5128430;27;20042;-61
2022/01/13 01:09:00;;;;;;;98.40;15.95;;;;;;;;;;5128859;28;20046;-61
2022/01/13 01:11:27;;;;;;;166.20;17.92;;;;;;;;;;5129821;28;20035;-60
2022/01/13 01:13:55;;;;;;;147.32;16.60;;;;;;;;;;5128758;28;20051;-60
2022/01/13 01:16:21;;;;;;;273.67;19.85;;;;;;;;;;5126386;27;20046;-61
2022/01/13 01:21:33;;;;;;;163.98;18.08;;;;;;;;;;5129306;28;20122;-59
2022/01/13 01:26:48;;;;;;;256.27;20.80;;;;;;;;;;5129776;28;20404;-60
2022/01/13 01:29:23;;;;;;;259.80;21.58;;;;;;;;;;5127133;28;20046;-60
2022/01/13 01:31:52;;;;;;;348.85;24.35;;;;;;;;;;5112843;28;20118;-60
2022/01/13 01:36:49;;;;;;;378.55;20.50;;;;;;;;;;5131608;27;20043;-61
2022/01/13 01:39:15;;;;;;;331.95;20.15;;;;;;;;;;5132088;27;20057;-61
2022/01/13 01:41:43;;;;;;;294.27;19.95;;;;;;;;;;5133312;27;20035;-61
2022/01/13 01:44:09;;;;;;;156.70;17.80;;;;;;;;;;5133792;27;20424;-61
2022/01/13 01:46:38;;;;;;;285.90;20.67;;;;;;;;;;5132378;27;20121;-62
2022/01/13 01:49:14;;;;;;;141.32;18.10;;;;;;;;;;5131436;27;20031;-59
2022/01/13 01:51:40;;;;;;;217.32;19.58;;;;;;;;;;5133802;27;20039;-63
2022/01/13 01:54:06;;;;;;;247.95;19.73;;;;;;;;;;5131326;27;20118;-61
2022/01/13 01:56:32;;;;;;;160.73;17.27;;;;;;;;;;5132532;27;20180;-61
2022/01/13 01:59:02;;;;;;;201.73;18.10;;;;;;;;;;5131948;27;20471;-62
2022/01/13 02:01:28;;;;;;;156.05;16.40;;;;;;;;;;5132772;27;20031;-61
2022/01/13 02:03:55;;;;;;;259.77;19.67;;;;;;;;;;5131585;27;20083;-62
2022/01/13 02:06:21;;;;;;;339.80;20.13;;;;;;;;;;5131900;27;20042;-61
2022/01/13 02:08:47;;;;;;;245.70;19.70;;;;;;;;;;5133159;27;20511;-61
2022/01/13 02:11:14;;;;;;;193.80;17.58;;;;;;;;;;5131931;27;20039;-61
2022/01/13 02:13:47;;;;;;;236.55;19.50;;;;;;;;;;5132614;27;20126;-61
2022/01/13 02:19:02;;;;;;;193.38;19.23;;;;;;;;;;5067816;28;20056;-61
2022/01/13 02:21:28;;;;;;;378.15;21.65;;;;;;;;;;5068522;28;20048;-60
2022/01/13 02:23:55;;;;;;;239.27;18.40;;;;;;;;;;5070920;28;20151;-60
2022/01/13 02:26:22;;;;;;;240.93;18.88;;;;;;;;;;5068198;28;20043;-60
2022/01/13 02:28:48;;;;;;;243.43;18.25;;;;;;;;;;5069575;28;20036;-60
2022/01/13 02:31:15;;;;;;;177.75;17.13;;;;;;;;;;5067089;28;20044;-61
2022/01/13 02:33:41;;;;;;;189.73;18.98;;;;;;;;;;5068933;28;20072;-60
2022/01/13 02:36:08;;;;;;;137.75;17.13;;;;;;;;;;5071884;28;20047;-60
2022/01/13 02:38:35;;;;;;;115.38;15.40;;;;;;;;;;5051880;28;20179;-61
2022/01/13 02:41:02;;;;;;;104.32;15.50;;;;;;;;;;5068656;28;20044;-61
2022/01/13 02:43:33;;;;;;;99.05;13.57;;;;;;;;;;5068505;28;20084;-61
2022/01/13 02:48:48;;;;;;;107.78;13.48;;;;;;;;;;5037614;28;20131;-60
2022/01/13 02:51:14;;;;;;;255.85;19.67;;;;;;;;;;5042363;28;20597;-61
2022/01/13 02:53:40;;;;;;;187.68;17.55;;;;;;;;;;5035941;28;20532;-61
2022/01/13 02:56:06;;;;;;;317.42;19.85;;;;;;;;;;5074487;28;20044;-62
2022/01/13 02:58:34;;;;;;;282.35;18.40;;;;;;;;;;5104600;27;20035;-62
2022/01/13 03:01:00;;;;;;;196.10;17.48;;;;;;;;;;5106750;28;20135;-60
2022/01/13 03:03:28;;;;;;;154.05;16.55;;;;;;;;;;5107172;28;20039;-62
2022/01/13 03:05:54;;;;;;;256.85;19.05;;;;;;;;;;5108640;28;20047;-61
2022/01/13 03:08:20;;;;;;;267.33;18.50;;;;;;;;;;5109348;28;20036;-60
2022/01/13 03:10:46;;;;;;;178.25;16.63;;;;;;;;;;5108475;28;20120;-62
2022/01/13 03:13:13;;;;;;;118.30;15.73;;;;;;;;;;5106835;28;20044;-60
2022/01/13 03:15:39;;;;;;;203.25;17.95;;;;;;;;;;5108901;28;20036;-62
2022/01/13 03:18:05;;;;;;;267.83;18.90;;;;;;;;;;5109475;28;20036;-61
2022/01/13 03:20:31;;;;;;;200.10;17.27;;;;;;;;;;5106405;28;20208;-59
2022/01/13 03:22:57;;;;;;;318.20;18.92;;;;;;;;;;5108421;28;20130;-61
2022/01/13 03:25:24;;;;;;;290.17;19.80;;;;;;;;;;5116182;27;20051;-61
2022/01/13 03:28:03;;;;;;;203.18;18.05;;;;;;;;;;5131312;27;20404;-62
2022/01/13 03:30:29;;;;;;;85.45;15.35;;;;;;;;;;5118949;27;20119;-60
2022/01/13 03:32:55;;;;;;;92.78;14.88;;;;;;;;;;5129044;27;20034;-60
2022/01/13 03:35:21;;;;;;;236.32;16.42;;;;;;;;;;5114387;27;20043;-60
2022/01/13 03:37:47;;;;;;;114.82;15.90;;;;;;;;;;5131767;27;20103;-60
2022/01/13 03:40:13;;;;;;;257.25;18.13;;;;;;;;;;5128800;27;20494;-60
2022/01/13 03:42:40;;;;;;;130.40;16.20;;;;;;;;;;5130686;27;20485;-61
2022/01/13 03:45:06;;;;;;;117.00;16.20;;;;;;;;;;5130978;27;20047;-62
2022/01/13 03:47:32;;;;;;;233.98;17.20;;;;;;;;;;5131968;27;20039;-62
2022/01/13 03:49:58;;;;;;;226.38;17.35;;;;;;;;;;5129396;27;20051;-61
2022/01/13 03:52:24;;;;;;;187.93;16.98;;;;;;;;;;5129226;27;20126;-60
2022/01/13 03:55:16;;;;;;;235.63;17.30;;;;;;;;;;5130311;27;20564;-62
2022/01/13 03:57:42;;;;;;;206.43;16.07;;;;;;;;;;5128557;27;20039;-60
2022/01/13 04:00:40;;;;;;;174.60;16.90;;;4.60;99.90;;;;;;5128455;27;20039;-61
2022/01/13 04:03:06;;;;;;;105.78;14.63;;;;;;;;;;5129468;27;20095;-60
2022/01/13 04:05:32;;;;;;;233.70;16.67;;;;;;;;;;5130632;27;20047;-61
2022/01/13 04:07:58;;;;;;;89.88;14.93;;;;;;;;;;5131444;27;20069;-61
2022/01/13 04:10:53;;;;;;;195.77;16.33;;;;;;;;;;5130564;27;20062;-62
2022/01/13 04:13:43;;;;;;;238.93;16.83;;;;;;;;;;5129391;27;20165;-61
2022/01/13 04:16:08;;;;;;;132.63;14.75;;;;;;;;;;5130403;27;20046;-61
2022/01/13 04:18:34;;;;;;;183.07;15.32;;;;;;;;;;5131324;27;20035;-62
2022/01/13 04:21:01;;;;;;;221.27;16.38;;;;;;;;;;5125262;27;20369;-61
2022/01/13 04:23:27;;;;;;;326.40;18.77;;;;;;;;;;5127947;27;20035;-60
2022/01/13 04:25:53;;;;;;;106.55;14.73;;;;;;;;;;5130029;27;20493;-62
2022/01/13 04:28:26;;;;;;;150.18;15.57;;;;;;;;;;5128900;27;20592;-61
2022/01/13 04:31:00;;;;;;;204.45;17.58;;;;;;;;;;5130306;27;20092;-61
2022/01/13 04:33:26;;;;;;;261.90;16.85;;;;;;;;;;5125643;27;20555;-60
2022/01/13 04:35:52;;;;;;;160.88;16.40;;;;;;;;;;5128797;27;20367;-61
2022/01/13 04:38:18;;;;;;;174.52;16.40;;;;;;;;;;5130565;27;20412;-62
2022/01/13 04:40:47;;;;;;;154.85;15.55;;;;;;;;;;5128648;28;20043;-60
2022/01/13 04:43:13;;;;;;;239.75;18.13;;;;;;;;;;5128600;27;20039;-62
2022/01/13 04:45:39;;;;;;;164.23;15.57;;;;;;;;;;5129889;28;20397;-61
2022/01/13 04:48:05;;;;;;;167.93;15.85;;;;;;;;;;5129989;28;20055;-60
2022/01/13 04:50:31;;;;;;;123.65;14.73;;;;;;;;;;5130792;28;20079;-61
2022/01/13 04:52:57;;;;;;;99.47;14.05;;;;;;;;;;5128299;28;20040;-60
2022/01/13 04:55:30;;;;;;;185.75;15.98;;;;;;;;;;5129241;28;20039;-60
2022/01/13 04:57:58;;;;;;;79.72;13.20;;;;;;;;;;5114549;28;20050;-60
2022/01/13 05:00:25;;;;;;;116.43;13.48;;;;;;;;;;5128005;27;20129;-61
2022/01/13 05:02:51;;;;;;;105.97;13.10;;;;;;;;;;5128170;27;20035;-61
2022/01/13 05:05:17;;;;;;;217.07;16.38;;;;;;;;;;5115513;28;20409;-59
2022/01/13 05:07:43;;;;;;;80.15;12.38;;;;;;;;;;5128850;28;20122;-59
2022/01/13 05:10:10;;;;;;;177.10;13.13;;;;;;;;;;5131266;27;20607;-62
2022/01/13 05:12:41;;;;;;;201.68;14.90;;;;;;;;;;5132714;27;20031;-60
2022/01/13 05:15:09;;;;;;;207.15;14.90;;;;;;;;;;5131406;27;20502;-61
2022/01/13 05:20:20;;;;;;;137.30;13.75;;;;;;;;;;5133572;27;20031;-59
2022/01/13 05:22:47;;;;;;;134.07;13.38;;;;;;;;;;5134547;27;20042;-62
2022/01/13 05:25:14;;;;;;;136.77;14.40;;;;;;;;;;5133476;27;20058;-60
2022/01/13 05:27:40;;;;;;;127.43;13.57;;;;;;;;;;5132518;27;20108;-62
2022/01/13 05:30:07;;;;;;;144.77;13.30;;;;;;;;;;5134039;27;20031;-62
2022/01/13 05:32:33;;;;;;;192.38;15.80;;;;;;;;;;5131517;27;20046;-61
2022/01/13 05:34:59;;;;;;;145.32;14.32;;;;;;;;;;5131167;27;20073;-62
2022/01/13 05:37:25;;;;;;;282.05;16.58;;;;;;;;;;5134434;27;20058;-61
2022/01/13 05:39:51;;;;;;;161.32;13.15;;;;;;;;;;5132682;27;20047;-60
2022/01/13 05:42:17;;;;;;;96.10;12.45;;;;;;;;;;5131920;27;20035;-60
2022/01/13 05:44:44;;;;;;;142.60;14.38;;;;;;;;;;5131223;27;20054;-62
2022/01/13 05:47:11;;;;;;;212.82;17.15;;;;;;;;;;5134382;27;20039;-60
2022/01/13 05:49:41;;;;;;;189.93;14.95;;;;;;;;;;5132307;27;20405;-61
2022/01/13 05:52:10;;;;;;;229.48;16.88;;;;;;;;;;5133902;27;20039;-61
2022/01/13 05:54:36;;;;;;;192.00;14.82;;;;;;;;;;5132073;27;20493;-62
2022/01/13 05:57:02;;;;;;;288.90;16.50;;;;;;;;;;5132726;27;20531;-60
2022/01/13 05:59:28;;;;;;;158.82;13.75;;;;;;;;;;5120170;27;20039;-60
2022/01/13 06:01:54;;;;;;;131.63;13.65;;;;;;;;;;5133668;27;20389;-60
2022/01/13 06:04:20;;;;;;;99.45;13.52;;;;;;;;;;5129769;27;20039;-61
2022/01/13 06:06:46;;;;;;;160.68;13.63;;;;;;;;;;5131621;27;20039;-61
2022/01/13 06:09:12;;;;;;;102.82;13.23;;;;;;;;;;5133489;27;20384;-61
2022/01/13 06:11:43;;;;;;;102.47;13.88;;;;;;;;;;5130447;27;20122;-61
2022/01/13 06:14:09;;;;;;;184.57;14.73;;;;;;;;;;5129956;27;20045;-60
2022/01/13 06:16:35;;;;;;;179.85;15.45;;;;;;;;;;5130314;27;20030;-61
2022/01/13 06:19:01;;;;;;;156.55;14.57;;;;;;;;;;5133802;27;20084;-61
2022/01/13 06:21:27;;;;;;;85.97;13.02;;;;;;;;;;5130675;27;20427;-60
2022/01/13 06:23:53;;;;;;;124.13;13.75;;;;;;;;;;5131719;27;20035;-61
2022/01/13 06:26:20;;;;;;;158.88;17.13;;;;;;;;;;5126605;27;20039;-60
2022/01/13 06:28:46;;;;;;;190.95;15.70;;;;;;;;;;5124895;27;20046;-62
2022/01/13 06:31:12;;;;;;;100.57;13.57;;;;;;;;;;5122752;27;20043;-61
2022/01/13 06:33:38;;;;;;;190.23;17.58;;;;;;;;;;5132356;27;20512;-59
2022/01/13 06:36:04;;;;;;;142.20;16.35;;;;;;;;;;5130872;27;20042;-61
2022/01/13 06:38:31;;;;;;;138.88;15.38;;;;;;;;;;5114700;27;20107;-60
2022/01/13 06:40:57;;;;;;;223.18;18.85;;;;;;;;;;5120445;27;20058;-60
2022/01/13 06:43:23;;;;;;;268.58;17.58;;;;;;;;;;5128517;27;20441;-60
2022/01/13 06:45:49;;;;;;;232.90;17.05;;;;;;;;;;5131996;27;20069;-62
2022/01/13 06:48:15;;;;;;;125.63;15.15;;;;;;;;;;5131027;27;20421;-60
2022/01/13 06:50:42;;;;;;;137.90;15.52;;;;;;;;;;5131931;27;20404;-61
2022/01/13 06:53:08;;;;;;;159.80;15.57;;;;;;;;;;5133299;27;20035;-62
2022/01/13 06:55:34;;;;;;;186.35;16.42;;;;;;;;;;5132112;27;20437;-60
2022/01/13 06:58:00;;;;;;;114.40;14.43;;;;;;;;;;5130887;27;20051;-61
2022/01/13 07:00:26;;;;;;;258.67;17.90;;;;;;;;;;5132026;27;20051;-60
2022/01/13 07:02:58;;;;;;;185.73;16.45;;;;;;;;;;5112311;27;20031;-60
2022/01/13 07:05:25;;;;;;;143.18;16.02;;;;;;;;;;5097955;27;20409;-60
2022/01/13 07:07:51;;;;;;;201.60;18.75;;;;;;;;;;5130768;27;20063;-62
2022/01/13 07:10:17;;;;;;;282.52;19.38;;;;;;;;;;5133005;27;20043;-61
2022/01/13 07:12:44;;;;;;;141.63;16.08;;;;;;;;;;5132893;27;20627;-61
2022/01/13 07:15:10;;;;;;;158.43;15.73;;;;;;;;;;5132803;27;20035;-59
2022/01/13 07:17:36;;;;;;;270.15;18.50;;;;;;;;;;5132716;27;20062;-60
2022/01/13 07:20:03;;;;;;;303.52;19.92;;;;;;;;;;5114769;27;20126;-59
2022/01/13 07:22:29;;;;;;;189.32;17.92;;;;;;;;;;5132485;27;20035;-60
2022/01/13 07:24:55;;;;;;;91.68;14.40;;;;;;;;;;5132869;27;20074;-62
2022/01/13 07:27:21;;;;;;;210.70;18.48;;;;;;;;;;5132557;27;20074;-62
2022/01/13 07:29:48;;;;;;;159.38;15.60;;;;;;;;;;5132849;27;20043;-62
2022/01/13 07:32:15;;;;;;;141.65;15.73;;;;;;;;;;5132122;27;20443;-61
2022/01/13 07:34:41;;;;;;;102.13;15.23;;;;;;;;;;5131534;27;20047;-62
2022/01/13 07:37:07;;;;;;;180.45;15.70;;;;;;;;;;5132156;27;20031;-62
2022/01/13 07:39:35;;;;;;;180.73;17.08;;;;;;;;;;5132018;27;20459;-60
2022/01/13 07:42:02;;;;;;;99.38;16.08;;;;;;;;;;5132383;27;20409;-60
2022/01/13 07:44:28;;;;;;;185.77;16.60;;;;;;;;;;5114031;27;20080;-61
2022/01/13 07:46:56;;;;;;;110.57;16.33;;;;;;;;;;5132095;27;20043;-61
2022/01/13 07:49:22;;;;;;;147.43;16.42;;;;;;;;;;5131688;27;20409;-59
2022/01/13 07:51:48;;;;;;;125.18;15.63;;;;;;;;;;5131672;27;20401;-61
2022/01/13 07:54:14;;;;;;;63.70;14.70;;;;;;;;;;5131156;27;20055;-61
2022/01/13 07:56:40;;;;;;;80.03;15.32;;;;;;;;;;5130403;27;20043;-59
2022/01/13 07:59:06;;;;;;;72.57;14.75;;;;;;;;;;5130767;27;20405;-60
2022/01/13 08:01:32;;;;;;;156.40;16.15;;;;;;;;;;5126381;27;20053;-61
2022/01/13 08:03:58;;;;;;;81.63;14.18;;;;;;;;;;5130438;27;20043;-61
2022/01/13 08:06:24;;;;;;;181.95;18.50;;;;;;;;;;5130936;27;20374;-61
2022/01/13 08:08:50;;;;;;;140.35;16.65;;;;;;;;;;5130572;27;20074;-62
2022/01/13 08:11:16;;;;;;;122.25;17.15;;;;;;;;;;5130811;27;20035;-59
2022/01/13 08:13:43;;;;;;;56.85;13.10;;;;;;;;;;5128584;27;20043;-60
2022/01/13 08:16:10;;;;;;;121.50;16.20;;;;;;;;;;5129626;27;20035;-63
2022/01/13 08:21:21;;;;;;;96.82;15.07;;;;;;;;;;5128294;27;20384;-60
2022/01/13 08:23:48;;;;;;;117.53;15.85;;;;;;;;;;5129928;27;20114;-61
2022/01/13 08:26:14;;;;;;;107.40;14.88;;;;;;;;;;5130307;27;20461;-61
2022/01/13 08:28:40;;;;;;;64.05;12.85;;;;;;;;;;5129432;27;20136;-61
2022/01/13 08:31:06;;;;;;;135.02;15.77;;;;;;;;;;5128786;27;20394;-60
2022/01/13 08:33:32;;;;;;;114.35;15.63;;;;;;;;;;5130870;27;20050;-60
2022/01/13 08:35:58;;;;;;;103.82;15.13;;;;;;;;;;5131252;27;20031;-61
2022/01/13 08:38:25;;;;;;;67.63;13.30;;;;;;;;;;5131018;27;20408;-60
2022/01/13 08:40:53;;;;;;;114.88;15.75;;;;;;;;;;5131434;27;20501;-60
2022/01/13 08:43:20;;;;;;;99.05;15.45;;;;;;;;;;5131057;27;20382;-60
2022/01/13 08:45:46;;;;;;;102.88;15.52;;;;;;;;;;5130939;27;20050;-60
2022/01/13 08:48:12;;;;;;;60.90;13.43;;;;;;;;;;5131359;28;20429;-61
2022/01/13 08:50:38;;;;;;;90.00;13.02;;;;;;;;;;5129884;28;20447;-60
2022/01/13 08:53:12;;;;;;;92.13;13.65;;;;;;;;;;5130859;28;20020;-63
2022/01/13 08:55:38;;;;;;;67.22;13.48;;;;;;;;;;5131538;28;20042;-60
2022/01/13 08:58:04;;;;;;;79.15;13.02;;;;;;;;;;5127787;27;20119;-61
2022/01/13 09:00:32;;;;;;;115.78;14.77;;;;;;;;;;5124415;28;20043;-60
2022/01/13 09:02:58;;;;;;;107.03;14.65;;;;;;;;;;5128378;27;20397;-61
2022/01/13 09:05:24;;;;;;;103.05;15.43;;;;;;;;;;5128965;28;20047;-61
2022/01/13 09:07:50;;;;;;;66.80;14.15;;;;;;;;;;5128281;28;20103;-62
2022/01/13 09:10:17;;;;;;;79.40;14.00;;;;;;;;;;5128431;28;20079;-61
2022/01/13 09:12:44;;;;;;;78.78;13.95;;;;;;;;;;5128792;27;20456;-61
2022/01/13 09:15:16;;;;;;;106.82;14.57;;;;;;;;;;5128454;27;20393;-60
2022/01/13 09:17:43;;;;;;;99.85;14.70;;;;;;;;;;5128853;27;20411;-61
2022/01/13 09:20:11;;;;;;;112.00;14.20;;;;;;;;;;5118543;28;20077;-61
2022/01/13 09:22:37;;;;;;;112.68;15.77;;;;;;;;;;5128063;28;20069;-62
2022/01/13 09:25:03;;;;;;;88.90;14.32;;;;;;;;;;5128095;28;20042;-62
2022/01/13 09:27:29;;;;;;;103.93;14.48;;;;;;;;;;5128404;28;20043;-60
2022/01/13 09:29:55;;;;;;;149.23;15.73;;;;;;;;;;5129477;28;20400;-60
2022/01/13 09:32:22;;;;;;;106.68;15.45;;;;;;;;;;5128388;28;20397;-61
2022/01/13 09:34:48;;;;;;;105.85;14.93;;;;;;;;;;5127990;27;20122;-62
2022/01/13 09:37:16;;;;;;;101.03;14.68;;;;;;;;;;5128224;28;20068;-61
2022/01/13 09:39:42;;;;;;;125.95;15.93;;;;;;;;;;5129443;27;20055;-61
2022/01/13 09:42:09;;;;;;;126.82;17.20;;;;;;;;;;5129561;28;20441;-61
2022/01/13 09:44:36;;;;;;;124.05;16.13;;;;;;;;;;5129473;28;20404;-60
2022/01/13 09:47:04;;;;;;;78.78;14.98;;;;;;;;;;5129154;28;20279;-60
2022/01/13 09:49:30;;;;;;;123.80;16.67;;;;;;;;;;5129118;27;20062;-60
2022/01/13 09:51:56;;;;;;;120.75;16.85;;;;;;;;;;5127542;28;20109;-60
2022/01/13 09:54:22;;;;;;;76.60;14.10;;;;;;;;;;5127150;28;20059;-60
2022/01/13 09:56:48;;;;;;;107.07;16.08;;;;;;;;;;5126855;27;20598;-60
2022/01/13 09:59:14;;;;;;;95.72;15.07;;;;;;;;;;5130852;27;20031;-60
2022/01/13 10:01:40;;;;;;;126.55;17.45;;;;;;;;;;5120654;27;20108;-61
2022/01/13 10:04:06;;;;;;;119.65;16.30;;;;;;;;;;5132506;27;20051;-61
2022/01/13 10:06:40;;;;;;;112.50;16.45;;;;;;;;;;5133185;27;20035;-61
2022/01/13 10:09:06;;;;;;;124.05;17.02;;;;;;;;;;5130705;27;20062;-61
2022/01/13 10:11:38;;;;;;;84.93;15.63;;;;;;;;;;5129007;27;20474;-60
2022/01/13 10:16:44;;;;;;;98.13;15.65;;;;;;;;;;5130281;27;20118;-60
2022/01/13 10:19:27;;;;;;;122.95;17.10;;;;;;;;;;5130486;27;20031;-60
2022/01/13 10:21:58;;;;;;;110.80;17.05;;;;;;;;;;5127628;27;20103;-61
2022/01/13 10:24:25;;;;;;;115.78;16.13;;;;;;;;;;5131691;27;20043;-60
2022/01/13 10:27:05;;;;;;;99.65;15.35;;;;;;;;;;5120366;27;20031;-61
2022/01/13 10:29:37;;;;;;;94.30;14.18;;;;;;;;;;5131149;27;20080;-62
2022/01/13 10:32:03;;;;;;;93.50;15.40;;;;;;;;;;5130764;27;20130;-60
2022/01/13 10:34:32;;;;;;;113.82;15.85;;;;;;;;;;5130780;27;20164;-60
2022/01/13 10:37:03;;;;;;;145.07;18.42;;;;;;;;;;5130943;27;20481;-61
2022/01/13 10:39:44;;;;;;;117.90;16.83;;;;;;;;;;5130392;27;20053;-61
2022/01/13 10:42:20;;;;;;;91.60;16.13;;;;;;;;;;5129165;27;20088;-60
2022/01/13 10:44:53;;;;;;;135.10;17.05;;;;;;;;;;5130219;27;20495;-60
2022/01/13 10:47:19;;;;;;;110.78;15.57;;;;;;;;;;5129542;27;20070;-61
2022/01/13 10:49:50;;;;;;;80.40;14.50;;;;;;;;;;5130942;27;20085;-61
2022/01/13 10:52:27;;;;;;;97.60;14.90;;;;;;;;;;5130454;27;20043;-60
2022/01/13 10:54:54;;;;;;;103.32;15.93;;;;;;;;;;5130596;27;20118;-61
2022/01/13 10:57:21;;;;;;;103.13;15.63;;;;;;;;;;5128913;27;20039;-61
2022/01/13 10:59:47;;;;;;;108.45;16.50;;;;;;;;;;5127836;27;20039;-62
2022/01/13 11:02:13;;;;;;;89.72;17.08;;;;;;;;;;5129878;27;20066;-62
2022/01/13 11:04:40;;;;;;;110.10;16.67;;;;;;;;;;5131000;27;20035;-61
2022/01/13 11:07:16;;;;;;;67.30;14.75;;;;;;;;;;5131073;27;20071;-61
2022/01/13 11:09:43;;;;;;;112.40;17.25;;;;;;;;;;5131280;27;20074;-61
2022/01/13 11:12:14;;;;;;;112.07;15.73;;;;;;;;;;5131785;27;20035;-62
2022/01/13 11:14:42;;;;;;;93.68;15.82;;;;;;;;;;5132143;27;20039;-59
2022/01/13 11:17:10;;;;;;;92.70;15.73;;;;;;;;;;5131724;27;20039;-62
2022/01/13 11:19:37;;;;;;;117.10;17.55;;;;;;;;;;5120279;27;20043;-62
2022/01/13 11:22:03;;;;;;;112.82;17.45;;;;;;;;;;5119062;27;20082;-62
2022/01/13 11:24:29;;;;;;;114.68;16.77;;;;;;;;;;5129756;27;20043;-62
2022/01/13 11:26:56;;;;;;;88.22;15.02;;;;;;;;;;5129887;27;20138;-63
2022/01/13 11:29:23;;;;;;;91.10;15.25;;;;;;;;;;5129849;27;20043;-61
2022/01/13 11:31:50;;;;;;;117.90;15.82;;;;;;;;;;5129599;27;20045;-62
2022/01/13 11:34:17;;;;;;;98.57;15.43;;;;;;;;;;5129194;27;20096;-61
2022/01/13 11:36:44;;;;;;;78.18;16.02;;;;;;;;;;5130756;27;20031;-60
2022/01/13 11:39:10;;;;;;;96.53;15.80;;;;;;;;;;5128745;27;20055;-62
2022/01/13 11:41:56;;;;;;;101.18;16.60;;;;;;;;;;5130207;27;20455;-62
2022/01/13 11:44:23;;;;;;;126.60;17.52;;;;;;;;;;5124208;27;20515;-61
2022/01/13 11:46:49;;;;;;;115.65;17.27;;;;;;;;;;5127364;27;20540;-63
2022/01/13 11:49:20;;;;;;;106.05;17.60;;;;;;;;;;5118227;27;20082;-60
2022/01/13 11:51:49;;;;;;;103.53;17.20;;;;;;;;;;5128106;27;20550;-62
2022/01/13 11:54:25;;;;;;;80.05;16.83;;;;;;;;;;5127117;27;20035;-62
2022/01/13 11:57:12;;;;;;;109.68;17.85;;;5.40;99.90;;;;;;5128119;27;20038;-63
2022/01/13 11:59:38;;;;;;;90.70;16.23;;;;;;;;;;5127625;27;20111;-61
2022/01/13 12:02:25;;;;;;;79.88;17.42;;;;;;;;;;5128646;27;20117;-61
2022/01/13 12:05:00;;;;;;;79.68;16.38;;;;;;;;;;5126076;27;20031;-60
2022/01/13 12:07:43;;;;;;;87.75;17.15;;;;;;;;;;5126162;27;20489;-62
2022/01/13 12:10:10;;;;;;;100.43;17.52;;;;;;;;;;5127900;27;20074;-61
2022/01/13 12:12:40;;;;;;;107.78;17.83;;;;;;;;;;5128603;27;20375;-62
2022/01/13 12:15:22;;;;;;;91.88;16.67;;;;;;;;;;5115571;27;20043;-61
2022/01/13 12:17:48;;;;;;;;;;;;;;;;;;5130603;27;20035;-63
2022/01/13 12:20:21;;;;;;;88.82;17.13;;;;;;;;;;5129363;27;20404;-62
2022/01/13 12:22:58;;;;;;;99.03;18.40;;;;;;;;;;5130845;27;20099;-62
2022/01/13 12:25:31;;;;;;;95.97;19.08;;;;;;;;;;5130050;27;20091;-62
2022/01/13 12:27:58;;;;;;;100.35;19.90;;;;;;;;;;5130019;27;20050;-61
2022/01/13 12:30:29;;;;;;;105.43;18.35;;;;;;;;;;5130294;27;20046;-61
2022/01/13 12:32:55;;;;;;;102.45;18.98;;;;;;;;;;5130011;27;20631;-62
2022/01/13 12:35:40;;;;;;;111.32;19.23;;;;;;;;;;5130134;27;20486;-61
2022/01/13 12:38:17;;;;;;;116.00;17.80;;;;;;;;;;5128124;27;20047;-61
2022/01/13 12:40:52;;;;;;;81.00;18.40;;;;;;;;;;5129061;27;20047;-62
2022/01/13 12:43:48;;;;;;;104.53;18.90;;;;;;;;;;5127718;27;20057;-62
2022/01/13 12:46:24;;;;;;;97.82;18.80;;;;;;;;;;5127146;28;20117;-61
2022/01/13 12:48:51;;;;;;;110.53;19.40;;;;;;;;;;5128100;28;20046;-60
2022/01/13 12:51:19;;;;;;;106.00;19.52;;;;;;;;;;5126902;28;20501;-61
2022/01/13 12:53:46;;;;;;;97.05;19.15;;;;;;;;;;5129104;28;20157;-61
2022/01/13 12:56:14;;;;;;;92.60;19.23;;;;;;;;;;5128180;28;20118;-61
2022/01/13 12:58:41;;;;;;;93.47;18.75;;;;;;;;;;5127171;28;20038;-63
2022/01/13 13:01:10;;;;;;;92.03;18.33;;;;;;;;;;5127816;28;20036;-61
2022/01/13 13:03:37;;;;;;;101.65;20.77;;;;;;;;;;5128957;28;20039;-63
2022/01/13 13:06:13;;;;;;;87.55;18.35;;;;;;;;;;5128244;28;20039;-61
2022/01/13 13:08:42;;;;;;;86.20;19.40;;;;;;;;;;5121134;28;20031;-62
2022/01/13 13:11:08;;;;;;;77.25;18.55;;;;;;;;;;5128207;28;20042;-60
2022/01/13 13:13:40;;;;;;;82.53;20.23;;;;;;;;;;5128732;28;20067;-62
2022/01/13 13:16:08;;;;;;;99.00;19.48;;;;;;;;;;5128950;28;20493;-62
2022/01/13 13:18:34;;;;;;;103.18;20.45;;;;;;;;;;5128470;28;20106;-62
2022/01/13 13:21:01;;;;;;;88.32;20.80;;;;;;;;;;5128690;28;20058;-62
2022/01/13 13:23:31;;;;;;;93.90;21.67;;;;;;;;;;5128529;28;20161;-63
2022/01/13 13:25:58;;;;;;;86.22;21.05;;;;;;;;;;5129260;27;20184;-62
2022/01/13 13:28:27;;;;;;;87.85;20.85;;;;;;;;;;5129180;28;20039;-62
2022/01/13 13:30:57;;;;;;;83.85;21.23;;;;;;;;;;5126632;28;20481;-61
2022/01/13 13:33:37;;;;;;;66.57;20.17;;;;;;;;;;5131898;27;20400;-62
2022/01/13 13:36:04;;;;;;;63.38;20.23;;;;;;;;;;5127759;27;20043;-62
2022/01/13 13:38:30;;;;;;;69.95;21.90;;;;;;;;;;5133693;27;20118;-63
2022/01/13 13:40:56;;;;;;;60.97;22.13;;;;;;;;;;5131380;27;20053;-63
2022/01/13 13:43:30;;;;;;;69.55;23.17;;;;;;;;;;5130820;27;20092;-60
2022/01/13 13:46:00;;;;;;;68.05;22.70;;;;;;;;;;5128731;27;20046;-61
2022/01/13 13:48:26;;;;;;;67.15;23.17;;;;;;;;;;5131413;27;20503;-62
2022/01/13 13:50:52;;;;;;;67.72;23.90;;;;;;;;;;5130165;27;20049;-61
2022/01/13 13:53:18;;;;;;;63.85;23.35;;;;;;;;;;5121431;27;20056;-60
2022/01/13 13:55:59;;;;;;;59.70;22.60;;;;;;;;;;5130543;27;20034;-61
2022/01/13 13:58:25;;;;;;;66.07;24.98;;;;;;;;;;5130686;27;20066;-62
2022/01/13 14:01:05;;;;;;;61.03;23.67;;;;;;;;;;5131181;27;20079;-63
2022/01/13 14:03:41;;;;;;;62.03;22.95;;;;;;;;;;5131265;27;20493;-63
2022/01/13 14:06:08;;;;;;;57.75;22.10;;;;;;;;;;5130257;27;20102;-60
2022/01/13 14:08:51;;;;;;;62.80;24.67;;;;;;;;;;5121293;27;20047;-63
2022/01/13 14:11:16;;;;;;;;;;;;;;;;;;5130854;27;20047;-63
2022/01/13 14:13:42;;;;;;;65.75;25.20;;;;;;;;;;5119058;27;20321;-62
2022/01/13 14:16:08;;;;;;;60.70;23.88;;;;;;;;;;5116660;27;20035;-62
2022/01/13 14:18:36;;;;;;;62.95;24.85;;;;;;;;;;5132995;27;20561;-61
2022/01/13 14:21:03;;;;;;;57.35;24.10;;;;;;;;;;5129972;27;20074;-63
2022/01/13 14:23:31;;;;;;;55.85;23.50;;;;;;;;;;5129776;27;20556;-60
2022/01/13 14:26:11;;;;;;;50.85;20.63;;;;;;;;;;5130989;27;20468;-62
2022/01/13 14:28:38;;;;;;;55.47;21.83;;;;;;;;;;5131237;27;20501;-62
2022/01/13 14:31:05;;;;;;;49.28;20.98;;;;;;;;;;5131766;27;20046;-61
2022/01/13 14:33:34;;;;;;;50.78;21.00;;;;;;;;;;5121896;27;20043;-62
2022/01/13 14:36:03;;;;;;;48.97;21.15;;;;;;;;;;5131892;27;20046;-60
2022/01/13 14:38:34;;;;;;;52.15;23.50;;;;;;;;;;5132173;27;20039;-63
2022/01/13 14:41:00;;;;;;;57.00;22.20;;;;;;;;;;5132477;27;20050;-60
2022/01/13 14:43:26;;;;;;;52.63;23.05;;;;;;;;;;5132284;27;20392;-63
2022/01/13 14:46:11;;;;;;;51.25;21.63;;;6.30;99.90;;;;;;5132126;27;20039;-61
2022/01/13 14:48:41;;;;;;;50.97;21.40;;;;;;;;;;5132017;27;20409;-62